Time;durP1;ratioP1;P1;durP2;ratioP2;P2;SDS_P1;SDS_P2;PMS_P1;PMS_P2;Temp;Humidity;BMP_temperature;BMP_pressure;BME280_temperature;BME280_humidity;BME280_pressure;Samples;Min_cycle;Max_cycle;Signal;HPM_P1;HPM_P2
2023/01/25 00:00:05;;;;;;;26.25;23.48;;;4.00;99.90;;;;;;2108883;28;20024;-71
2023/01/25 00:01:06;;;;;;;24.88;22.50;;;4.00;99.90;;;;;;2108860;28;20020;-71
2023/01/25 00:02:18;;;;;;;24.30;22.00;;;4.00;99.90;;;;;;2109071;28;20026;-71
2023/01/25 00:03:19;;;;;;;26.35;23.85;;;4.10;99.90;;;;;;2108030;28;20032;-71
2023/01/25 00:04:20;;;;;;;24.75;22.15;;;4.00;99.90;;;;;;2106558;28;20016;-71
2023/01/25 00:05:21;;;;;;;24.65;22.23;;;4.10;99.90;;;;;;2107266;27;20045;-71
2023/01/25 00:06:21;;;;;;;23.67;21.30;;;4.00;99.90;;;;;;2108215;28;20072;-71
2023/01/25 00:07:22;;;;;;;24.92;22.42;;;4.10;99.90;;;;;;2107202;28;20046;-71
2023/01/25 00:08:22;;;;;;;24.33;22.08;;;4.10;99.90;;;;;;2110632;28;20107;-71
2023/01/25 00:09:24;;;;;;;26.58;24.08;;;4.10;99.90;;;;;;2108726;28;20501;-71
2023/01/25 00:10:25;;;;;;;26.38;23.67;;;4.10;99.90;;;;;;2107054;28;20144;-71
2023/01/25 00:11:25;;;;;;;25.33;22.70;;;4.10;99.90;;;;;;2107039;28;20028;-71
2023/01/25 00:12:26;;;;;;;23.80;21.60;;;4.00;99.90;;;;;;2105790;28;20023;-71
2023/01/25 00:13:26;;;;;;;25.27;22.88;;;4.00;99.90;;;;;;2107042;28;20099;-71
2023/01/25 00:14:27;;;;;;;25.15;22.65;;;4.10;99.90;;;;;;2105206;28;20099;-71
2023/01/25 00:15:27;;;;;;;24.77;22.40;;;4.10;99.90;;;;;;2107126;28;20443;-71
2023/01/25 00:16:28;;;;;;;26.15;23.55;;;4.00;99.90;;;;;;2108147;28;20646;-71
2023/01/25 00:17:28;;;;;;;25.92;23.33;;;4.00;99.90;;;;;;2108120;28;20161;-71
2023/01/25 00:18:29;;;;;;;26.77;24.23;;;4.00;99.90;;;;;;2108703;28;20020;-71
2023/01/25 00:19:30;;;;;;;25.45;23.00;;;3.90;99.90;;;;;;2107452;28;20051;-71
2023/01/25 00:20:30;;;;;;;24.48;22.00;;;3.90;99.90;;;;;;2107062;28;20028;-71
2023/01/25 00:21:33;;;;;;;24.27;21.77;;;3.90;99.90;;;;;;2107389;28;20024;-71
2023/01/25 00:22:33;;;;;;;24.35;21.85;;;3.90;99.90;;;;;;2108150;28;20027;-71
2023/01/25 00:23:34;;;;;;;25.73;23.17;;;3.90;99.90;;;;;;2106136;28;20016;-71
2023/01/25 00:24:34;;;;;;;25.05;22.65;;;3.90;99.90;;;;;;2107585;28;20054;-71
2023/01/25 00:25:35;;;;;;;26.90;24.27;;;3.90;99.90;;;;;;2107520;28;20102;-71
2023/01/25 00:26:35;;;;;;;26.45;23.85;;;3.90;99.90;;;;;;2108653;28;20027;-71
2023/01/25 00:27:36;;;;;;;27.05;24.33;;;3.90;99.90;;;;;;2107918;28;20644;-71
2023/01/25 00:28:36;;;;;;;26.73;24.08;;;3.90;99.90;;;;;;2109581;28;20076;-71
2023/01/25 00:29:37;;;;;;;25.60;23.00;;;3.80;99.90;;;;;;2109663;28;20095;-70
2023/01/25 00:30:37;;;;;;;27.50;24.70;;;3.80;99.90;;;;;;2107916;28;20027;-72
2023/01/25 00:31:56;;;;;;;27.08;24.40;;;3.80;99.90;;;;;;2106522;28;20019;-71
2023/01/25 00:33:05;;;;;;;26.40;23.70;;;3.70;99.90;;;;;;2106929;28;20024;-71
2023/01/25 00:34:23;;;;;;;26.23;23.70;;;3.70;99.90;;;;;;2106515;28;20113;-71
2023/01/25 00:35:30;;;;;;;24.98;22.67;;;3.70;99.90;;;;;;2106949;28;20036;-71
2023/01/25 00:36:36;;;;;;;24.48;22.17;;;3.60;99.90;;;;;;2105716;28;20016;-71
2023/01/25 00:37:41;;;;;;;25.73;23.23;;;3.60;99.90;;;;;;2106563;28;20023;-71
2023/01/25 00:38:42;;;;;;;25.58;23.08;;;3.60;99.90;;;;;;2106880;28;20479;-70
2023/01/25 00:39:43;;;;;;;24.02;21.60;;;3.60;99.90;;;;;;2106815;27;20024;-71
2023/01/25 00:40:43;;;;;;;24.17;21.70;;;3.60;99.90;;;;;;2106222;28;20119;-71
2023/01/25 00:41:44;;;;;;;25.55;22.95;;;3.60;99.90;;;;;;2108243;28;20032;-71
2023/01/25 00:42:44;;;;;;;25.30;22.80;;;3.60;99.90;;;;;;2107803;28;20020;-71
2023/01/25 00:43:45;;;;;;;25.42;23.02;;;3.60;99.90;;;;;;2109432;28;20102;-71
2023/01/25 00:44:46;;;;;;;25.15;22.70;;;3.60;99.90;;;;;;2108743;28;20024;-71
2023/01/25 00:45:47;;;;;;;26.40;23.63;;;3.70;99.90;;;;;;2107601;28;20027;-71
2023/01/25 00:46:48;;;;;;;25.90;23.40;;;3.70;99.90;;;;;;2107521;28;20446;-71
2023/01/25 00:47:48;;;;;;;28.77;25.88;;;3.70;99.90;;;;;;2108369;28;20140;-71
2023/01/25 00:48:52;;;;;;;26.60;24.10;;;3.70;99.90;;;;;;2106717;28;20058;-71
2023/01/25 00:49:53;;;;;;;26.45;23.85;;;3.70;99.90;;;;;;2106587;28;20474;-71
2023/01/25 00:50:53;;;;;;;28.55;25.75;;;3.70;99.90;;;;;;2106906;27;20202;-71
2023/01/25 00:51:54;;;;;;;28.05;25.35;;;3.70;99.90;;;;;;2108276;28;20440;-71
2023/01/25 00:52:55;;;;;;;28.25;25.23;;;3.80;99.90;;;;;;2107479;28;20031;-71
2023/01/25 00:53:55;;;;;;;26.45;23.88;;;3.80;99.90;;;;;;2108200;28;20114;-71
2023/01/25 00:54:56;;;;;;;26.02;23.52;;;3.80;99.90;;;;;;2107625;28;20039;-71
2023/01/25 00:55:56;;;;;;;25.40;22.98;;;3.80;99.90;;;;;;2108632;28;20651;-71
2023/01/25 00:56:57;;;;;;;26.52;23.83;;;3.80;99.90;;;;;;2106786;28;20664;-71
2023/01/25 00:57:57;;;;;;;25.10;22.70;;;3.80;99.90;;;;;;2109829;28;20030;-71
2023/01/25 00:58:58;;;;;;;26.63;23.98;;;3.80;99.90;;;;;;2109121;28;20042;-71
2023/01/25 00:59:58;;;;;;;26.05;23.52;;;3.80;99.90;;;;;;2106258;28;20032;-71
2023/01/25 01:00:59;;;;;;;25.73;23.10;;;3.80;99.90;;;;;;2108368;28;20012;-71
2023/01/25 01:02:00;;;;;;;24.77;22.48;;;3.80;99.90;;;;;;2107836;28;20078;-71
2023/01/25 01:03:00;;;;;;;25.35;22.83;;;3.80;99.90;;;;;;2107213;28;20031;-71
2023/01/25 01:04:01;;;;;;;25.85;23.33;;;3.90;99.90;;;;;;2107615;28;20103;-71
2023/01/25 01:05:01;;;;;;;25.25;22.75;;;3.90;99.90;;;;;;2107576;28;20031;-71
2023/01/25 01:06:08;;;;;;;24.25;21.92;;;3.90;99.90;;;;;;2108676;28;20066;-71
2023/01/25 01:07:11;;;;;;;24.63;22.15;;;3.90;99.90;;;;;;2106609;28;20097;-71
2023/01/25 01:08:13;;;;;;;25.45;22.98;;;3.90;99.90;;;;;;2107942;28;20507;-71
2023/01/25 01:09:16;;;;;;;25.75;23.25;;;3.90;99.90;;;;;;2106444;28;20090;-71
2023/01/25 01:10:17;;;;;;;27.40;24.77;;;3.90;99.90;;;;;;2107900;28;20120;-71
2023/01/25 01:11:17;;;;;;;26.20;23.60;;;3.90;99.90;;;;;;2108314;28;20028;-71
2023/01/25 01:12:18;;;;;;;25.08;22.67;;;3.90;99.90;;;;;;2107652;28;20040;-71
2023/01/25 01:13:18;;;;;;;24.83;22.52;;;3.90;99.90;;;;;;2108967;28;20062;-70
2023/01/25 01:14:21;;;;;;;25.58;23.00;;;3.90;99.90;;;;;;2106523;28;20212;-71
2023/01/25 01:15:22;;;;;;;25.92;23.33;;;3.90;99.90;;;;;;2107548;28;20116;-71
2023/01/25 01:16:23;;;;;;;27.35;24.65;;;3.90;99.90;;;;;;2108361;28;20857;-71
2023/01/25 01:17:23;;;;;;;27.20;24.50;;;3.90;99.90;;;;;;2107742;28;20110;-70
2023/01/25 01:18:24;;;;;;;25.27;22.80;;;3.90;99.90;;;;;;2109000;28;20647;-71
2023/01/25 01:19:24;;;;;;;27.83;24.92;;;3.90;99.90;;;;;;2107673;28;20076;-71
2023/01/25 01:20:25;;;;;;;26.38;23.70;;;3.90;99.90;;;;;;2106683;28;20020;-71
2023/01/25 01:21:26;;;;;;;26.75;24.08;;;3.90;99.90;;;;;;2109140;28;20109;-71
2023/01/25 01:22:26;;;;;;;26.35;23.65;;;3.90;99.90;;;;;;2107514;28;20063;-71
2023/01/25 01:23:27;;;;;;;26.02;23.40;;;3.90;99.90;;;;;;2108754;28;20027;-71
2023/01/25 01:24:28;;;;;;;24.95;22.45;;;3.90;99.90;;;;;;2111313;28;20587;-71
2023/01/25 01:25:28;;;;;;;26.33;23.60;;;3.90;99.90;;;;;;2105662;28;20430;-71
2023/01/25 01:26:29;;;;;;;27.23;24.52;;;3.90;99.90;;;;;;2108480;28;20032;-71
2023/01/25 01:27:29;;;;;;;25.05;22.60;;;3.90;99.90;;;;;;2108041;28;20496;-71
2023/01/25 01:28:31;;;;;;;24.95;22.50;;;3.90;99.90;;;;;;2107915;28;20043;-71
2023/01/25 01:29:32;;;;;;;24.52;22.00;;;3.90;99.90;;;;;;2109229;28;20360;-71
2023/01/25 01:30:33;;;;;;;26.73;24.02;;;3.90;99.90;;;;;;2109671;28;20068;-71
2023/01/25 01:31:33;;;;;;;25.60;23.10;;;3.90;99.90;;;;;;2110333;28;20028;-71
2023/01/25 01:32:34;;;;;;;24.25;21.85;;;3.90;99.90;;;;;;2111476;28;20027;-71
2023/01/25 01:33:34;;;;;;;22.60;20.40;;;3.90;99.90;;;;;;2116120;27;20568;-71
2023/01/25 01:34:35;;;;;;;22.80;20.52;;;3.90;99.90;;;;;;2109414;28;20024;-71
2023/01/25 01:35:35;;;;;;;24.20;21.73;;;3.90;99.90;;;;;;2107795;28;20031;-71
2023/01/25 01:36:36;;;;;;;24.90;22.45;;;3.90;99.90;;;;;;2105653;28;20043;-71
2023/01/25 01:37:40;;;;;;;27.45;24.60;;;3.90;99.90;;;;;;2107207;28;20467;-71
2023/01/25 01:38:42;;;;;;;28.15;25.40;;;3.90;99.90;;;;;;2108856;28;20608;-71
2023/01/25 01:39:42;;;;;;;27.92;25.27;;;3.90;99.90;;;;;;2108708;28;20725;-71
2023/01/25 01:40:46;;;;;;;27.88;25.17;;;3.90;99.90;;;;;;2108555;28;20023;-71
2023/01/25 01:41:47;;;;;;;27.30;24.60;;;3.90;99.90;;;;;;2107562;28;20024;-71
2023/01/25 01:43:01;;;;;;;28.58;25.77;;;3.90;99.90;;;;;;2105882;28;20024;-71
2023/01/25 01:44:02;;;;;;;27.15;24.48;;;3.90;99.90;;;;;;2107936;28;20644;-71
2023/01/25 01:45:41;;;;;;;27.35;24.70;;;3.90;99.90;;;;;;2108153;28;20507;-71
2023/01/25 01:46:51;;;;;;;25.23;22.60;;;3.80;99.90;;;;;;2106692;28;20024;-71
2023/01/25 01:47:52;;;;;;;27.30;23.88;;;3.80;99.90;;;;;;2108560;28;20034;-71
2023/01/25 01:49:17;;;;;;;26.25;23.65;;;3.80;99.90;;;;;;2109374;28;20106;-71
2023/01/25 01:50:21;;;;;;;25.52;22.98;;;3.70;99.90;;;;;;2107096;28;20620;-71
2023/01/25 01:51:41;;;;;;;25.92;23.48;;;3.60;99.90;;;;;;2106821;28;20479;-71
2023/01/25 01:52:41;;;;;;;27.13;24.53;;;3.60;99.90;;;;;;2107544;28;20046;-71
2023/01/25 01:53:47;;;;;;;24.95;22.45;;;3.60;99.90;;;;;;2109049;28;20947;-71
2023/01/25 01:55:13;;;;;;;27.33;24.73;;;3.60;99.90;;;;;;2106856;28;20061;-71
2023/01/25 01:56:21;;;;;;;27.70;24.88;;;3.60;99.90;;;;;;2104718;28;20458;-71
2023/01/25 01:57:34;;;;;;;23.77;21.52;;;3.60;99.90;;;;;;2106906;28;20035;-70
2023/01/25 01:58:36;;;;;;;22.90;20.63;;;3.70;99.90;;;;;;2106320;28;20058;-71
2023/01/25 01:59:45;;;;;;;26.30;23.70;;;3.70;99.90;;;;;;2106605;28;20507;-71
2023/01/25 02:00:46;;;;;;;26.35;23.85;;;3.70;99.90;;;;;;2105335;28;20031;-71
2023/01/25 02:01:47;;;;;;;26.25;23.60;;;3.70;99.90;;;;;;2107105;28;20027;-71
2023/01/25 02:02:49;;;;;;;26.20;23.75;;;3.70;99.90;;;;;;2109593;28;20027;-71
2023/01/25 02:03:51;;;;;;;28.60;25.55;;;3.70;99.90;;;;;;2109724;28;20027;-71
2023/01/25 02:04:55;;;;;;;28.38;25.58;;;3.70;99.90;;;;;;2108560;28;20031;-71
2023/01/25 02:06:02;;;;;;;26.02;23.42;;;3.70;99.90;;;;;;2109580;28;20115;-71
2023/01/25 02:07:13;;;;;;;27.23;24.58;;;3.70;99.90;;;;;;2109888;28;20106;-71
2023/01/25 02:08:14;;;;;;;26.77;24.08;;;3.70;99.90;;;;;;2108767;28;20062;-71
2023/01/25 02:09:19;;;;;;;25.00;22.48;;;3.60;99.90;;;;;;2106466;28;20020;-71
2023/01/25 02:10:22;;;;;;;25.42;23.02;;;3.60;99.90;;;;;;2110317;28;20023;-71
2023/01/25 02:11:26;;;;;;;25.50;22.95;;;3.50;99.90;;;;;;2107930;28;20419;-71
2023/01/25 02:12:27;;;;;;;23.70;21.40;;;3.50;99.90;;;;;;2109670;28;20136;-71
2023/01/25 02:13:29;;;;;;;25.25;22.75;;;3.50;99.90;;;;;;2111224;28;20024;-71
2023/01/25 02:14:29;;;;;;;25.92;23.27;;;3.60;99.90;;;;;;2109766;28;20055;-71
2023/01/25 02:15:40;;;;;;;25.02;22.52;;;3.50;99.90;;;;;;2110612;28;20031;-71
2023/01/25 02:16:42;;;;;;;26.60;24.00;;;3.60;99.90;;;;;;2108994;28;20024;-71
2023/01/25 02:17:42;;;;;;;24.98;22.58;;;3.60;99.90;;;;;;2107875;28;20020;-71
2023/01/25 02:18:43;;;;;;;27.33;24.63;;;3.60;99.90;;;;;;2106055;28;20020;-71
2023/01/25 02:19:55;;;;;;;27.63;24.73;;;3.60;99.90;;;;;;2108409;28;20044;-71
2023/01/25 02:20:57;;;;;;;26.20;23.60;;;3.60;99.90;;;;;;2108855;28;20032;-71
2023/01/25 02:22:06;;;;;;;24.60;22.08;;;3.60;99.90;;;;;;2110392;28;20023;-71
2023/01/25 02:23:12;;;;;;;25.48;23.02;;;3.60;99.90;;;;;;2109628;28;20027;-71
2023/01/25 02:24:22;;;;;;;24.50;21.98;;;3.60;99.90;;;;;;2108755;28;20054;-71
2023/01/25 02:25:22;;;;;;;25.70;23.02;;;3.70;99.90;;;;;;2109086;28;20028;-71
2023/01/25 02:26:23;;;;;;;26.98;24.35;;;3.60;99.90;;;;;;2109024;28;20028;-71
2023/01/25 02:27:24;;;;;;;28.33;25.63;;;3.60;99.90;;;;;;2107775;28;20724;-71
2023/01/25 02:28:39;;;;;;;26.25;23.65;;;3.70;99.90;;;;;;2109809;28;20426;-71
2023/01/25 02:29:40;;;;;;;26.75;23.95;;;3.70;99.90;;;;;;2108268;28;20028;-71
2023/01/25 02:30:41;;;;;;;27.25;24.58;;;3.60;99.90;;;;;;2109567;28;20688;-71
2023/01/25 02:31:48;;;;;;;26.52;23.80;;;3.60;99.90;;;;;;2110779;28;20034;-71
2023/01/25 02:32:48;;;;;;;26.70;24.02;;;3.60;99.90;;;;;;2109194;28;20054;-71
2023/01/25 02:33:49;;;;;;;26.90;24.23;;;3.60;99.90;;;;;;2108623;28;20028;-71
2023/01/25 02:34:49;;;;;;;25.17;22.88;;;3.60;99.90;;;;;;2108902;28;20027;-71
2023/01/25 02:36:00;;;;;;;26.20;23.50;;;3.50;99.90;;;;;;2108057;28;20678;-71
2023/01/25 02:37:00;;;;;;;24.30;21.95;;;3.50;99.90;;;;;;2109458;28;20023;-71
2023/01/25 02:38:01;;;;;;;24.85;22.45;;;3.50;99.90;;;;;;2108732;28;20028;-71
2023/01/25 02:39:11;;;;;;;27.58;24.75;;;3.40;99.90;;;;;;2107872;28;20028;-71
2023/01/25 02:40:12;;;;;;;26.25;23.65;;;3.50;99.90;;;;;;2109872;28;20490;-71
2023/01/25 02:41:24;;;;;;;27.25;24.65;;;3.40;99.90;;;;;;2108878;28;20379;-71
2023/01/25 02:42:28;;;;;;;25.88;23.52;;;3.40;99.90;;;;;;2109546;28;20028;-71
2023/01/25 02:43:31;;;;;;;27.10;24.50;;;3.50;99.90;;;;;;2110177;28;20032;-71
2023/01/25 02:44:32;;;;;;;27.50;24.90;;;3.40;99.90;;;;;;2108292;28;20020;-71
2023/01/25 02:45:33;;;;;;;27.27;24.50;;;3.40;99.90;;;;;;2109883;28;20110;-71
2023/01/25 02:46:36;;;;;;;27.45;24.85;;;3.40;99.90;;;;;;2109535;28;20031;-71
2023/01/25 02:47:36;;;;;;;27.70;24.80;;;3.40;99.90;;;;;;2108258;28;20043;-71
2023/01/25 02:48:37;;;;;;;26.75;24.15;;;3.40;99.90;;;;;;2108193;28;20056;-71
2023/01/25 02:49:37;;;;;;;26.15;23.63;;;3.40;99.90;;;;;;2107228;28;20040;-71
2023/01/25 02:50:38;;;;;;;28.00;25.30;;;3.40;99.90;;;;;;2110095;28;20030;-71
2023/01/25 02:51:44;;;;;;;27.25;24.40;;;3.40;99.90;;;;;;2109138;28;20061;-71
2023/01/25 02:52:45;;;;;;;27.73;24.75;;;3.30;99.90;;;;;;2108125;28;20509;-71
2023/01/25 02:53:46;;;;;;;28.15;25.23;;;3.30;99.90;;;;;;2108241;28;20024;-71
2023/01/25 02:54:46;;;;;;;27.08;24.35;;;3.30;99.90;;;;;;2106831;28;20073;-71
2023/01/25 02:55:47;;;;;;;27.88;25.05;;;3.30;99.90;;;;;;2107887;28;20821;-71
2023/01/25 02:56:48;;;;;;;29.75;26.85;;;3.30;99.90;;;;;;2107624;28;20020;-71
2023/01/25 02:57:48;;;;;;;29.05;26.15;;;3.30;99.90;;;;;;2106832;28;20059;-71
2023/01/25 02:58:49;;;;;;;26.70;23.98;;;3.30;99.90;;;;;;2108885;28;20031;-71
2023/01/25 02:59:50;;;;;;;26.65;24.05;;;3.30;99.90;;;;;;2106087;28;20024;-71
2023/01/25 03:00:50;;;;;;;27.27;24.58;;;3.40;99.90;;;;;;2109658;28;20177;-71
2023/01/25 03:01:51;;;;;;;27.30;24.60;;;3.30;99.90;;;;;;2109168;28;20024;-71
2023/01/25 03:02:51;;;;;;;28.30;25.45;;;3.30;99.90;;;;;;2110191;28;20053;-71
2023/01/25 03:03:52;;;;;;;27.45;24.65;;;3.40;99.90;;;;;;2110737;28;20038;-71
2023/01/25 03:04:52;;;;;;;28.05;25.27;;;3.30;99.90;;;;;;2109770;28;20036;-71
2023/01/25 03:05:53;;;;;;;26.90;24.33;;;3.30;99.90;;;;;;2106967;28;20023;-71
2023/01/25 03:06:53;;;;;;;27.80;25.13;;;3.30;99.90;;;;;;2110528;28;20038;-71
2023/01/25 03:07:54;;;;;;;25.77;23.15;;;3.30;99.90;;;;;;2109047;28;20068;-71
2023/01/25 03:08:54;;;;;;;28.30;25.38;;;3.30;99.90;;;;;;2110018;28;20039;-71
2023/01/25 03:09:55;;;;;;;27.45;24.55;;;3.30;99.90;;;;;;2108962;28;20032;-71
2023/01/25 03:10:57;;;;;;;28.10;25.10;;;3.30;99.90;;;;;;2108804;28;20059;-71
2023/01/25 03:11:57;;;;;;;27.35;24.65;;;3.30;99.90;;;;;;2110449;28;20062;-71
2023/01/25 03:12:58;;;;;;;28.52;25.73;;;3.30;99.90;;;;;;2109954;28;20030;-71
2023/01/25 03:13:58;;;;;;;28.40;25.60;;;3.30;99.90;;;;;;2108053;28;20275;-71
2023/01/25 03:14:59;;;;;;;29.98;26.83;;;3.30;99.90;;;;;;2108243;28;20020;-70
2023/01/25 03:16:08;;;;;;;28.58;25.80;;;3.30;99.90;;;;;;2109487;28;20104;-71
2023/01/25 03:17:08;;;;;;;28.25;25.33;;;3.30;99.90;;;;;;2110883;28;20043;-71
2023/01/25 03:18:09;;;;;;;28.70;25.80;;;3.30;99.90;;;;;;2107811;28;20024;-71
2023/01/25 03:19:10;;;;;;;28.30;25.42;;;3.30;99.90;;;;;;2108982;28;20032;-71
2023/01/25 03:20:11;;;;;;;28.40;25.60;;;3.30;99.90;;;;;;2109020;28;20039;-71
2023/01/25 03:21:14;;;;;;;28.27;25.48;;;3.30;99.90;;;;;;2108393;28;20495;-71
2023/01/25 03:22:15;;;;;;;27.60;24.85;;;3.30;99.90;;;;;;2108066;28;20035;-71
2023/01/25 03:23:16;;;;;;;27.85;24.95;;;3.30;99.90;;;;;;2107944;28;20019;-70
2023/01/25 03:24:16;;;;;;;26.25;23.60;;;3.20;99.90;;;;;;2107420;28;20122;-71
2023/01/25 03:25:16;;;;;;;27.88;25.17;;;3.30;99.90;;;;;;2109126;28;20039;-71
2023/01/25 03:26:20;;;;;;;27.75;24.85;;;3.30;99.90;;;;;;2108581;28;20082;-71
2023/01/25 03:27:20;;;;;;;28.48;25.63;;;3.20;99.90;;;;;;2109634;28;20518;-71
2023/01/25 03:28:21;;;;;;;28.13;25.40;;;3.20;99.90;;;;;;2107302;28;20460;-71
2023/01/25 03:29:21;;;;;;;27.38;24.52;;;3.20;99.90;;;;;;2110911;28;20508;-71
2023/01/25 03:30:22;;;;;;;27.60;24.80;;;3.20;99.90;;;;;;2108351;28;20115;-71
2023/01/25 03:31:23;;;;;;;29.90;26.80;;;3.20;99.90;;;;;;2108334;28;20081;-71
2023/01/25 03:32:24;;;;;;;28.05;25.30;;;3.20;99.90;;;;;;2107619;28;20019;-71
2023/01/25 03:33:24;;;;;;;27.17;24.58;;;3.20;99.90;;;;;;2107104;28;20077;-71
2023/01/25 03:34:25;;;;;;;27.73;24.98;;;3.20;99.90;;;;;;2108256;28;20035;-71
2023/01/25 03:35:25;;;;;;;25.20;22.67;;;3.20;99.90;;;;;;2109556;28;20063;-71
2023/01/25 03:36:26;;;;;;;28.23;25.25;;;3.20;99.90;;;;;;2108416;28;20031;-71
2023/01/25 03:37:29;;;;;;;28.77;26.08;;;3.20;99.90;;;;;;2105334;28;20665;-71
2023/01/25 03:38:29;;;;;;;29.88;26.92;;;3.20;99.90;;;;;;2106720;28;20020;-71
2023/01/25 03:39:30;;;;;;;27.70;25.10;;;3.20;99.90;;;;;;2107974;28;20032;-71
2023/01/25 03:40:30;;;;;;;28.48;25.67;;;3.30;99.90;;;;;;2107535;28;20109;-71
2023/01/25 03:41:31;;;;;;;26.27;23.67;;;3.30;99.90;;;;;;2108158;28;20028;-71
2023/01/25 03:42:31;;;;;;;26.30;23.80;;;3.30;99.90;;;;;;2109981;28;20755;-71
2023/01/25 03:43:32;;;;;;;27.30;24.48;;;3.30;99.90;;;;;;2111041;28;20423;-71
2023/01/25 03:44:32;;;;;;;25.52;23.02;;;3.30;99.90;;;;;;2108841;28;20663;-71
2023/01/25 03:45:33;;;;;;;28.48;25.75;;;3.30;99.90;;;;;;2106993;28;20019;-71
2023/01/25 03:46:33;;;;;;;27.80;24.98;;;3.40;99.90;;;;;;2106851;28;20051;-71
2023/01/25 03:47:34;;;;;;;28.00;25.30;;;3.40;99.90;;;;;;2105164;28;20028;-71
2023/01/25 03:48:34;;;;;;;28.52;25.83;;;3.40;99.90;;;;;;2106333;28;20035;-71
2023/01/25 03:49:35;;;;;;;26.33;23.83;;;3.40;99.90;;;;;;2108223;28;20023;-71
2023/01/25 03:50:36;;;;;;;29.77;26.75;;;3.40;99.90;;;;;;2107546;28;20034;-71
2023/01/25 03:51:37;;;;;;;29.75;26.67;;;3.40;99.90;;;;;;2107597;28;20016;-71
2023/01/25 03:52:40;;;;;;;29.55;26.55;;;3.40;99.90;;;;;;2108982;28;20031;-71
2023/01/25 03:53:41;;;;;;;28.05;25.25;;;3.50;99.90;;;;;;2109388;28;20055;-71
2023/01/25 03:54:41;;;;;;;31.48;28.45;;;3.50;99.90;;;;;;2110317;28;20019;-71
2023/01/25 03:55:42;;;;;;;30.67;27.58;;;3.50;99.90;;;;;;2107723;28;20107;-71
2023/01/25 03:56:43;;;;;;;29.55;26.60;;;3.50;99.90;;;;;;2107592;28;20031;-71
2023/01/25 03:57:43;;;;;;;26.60;23.90;;;3.50;99.90;;;;;;2108077;28;20032;-71
2023/01/25 03:58:44;;;;;;;29.30;26.35;;;3.50;99.90;;;;;;2109868;28;20206;-70
2023/01/25 03:59:45;;;;;;;28.52;25.83;;;3.50;99.90;;;;;;2108228;28;20028;-71
2023/01/25 04:00:45;;;;;;;27.88;24.88;;;3.50;99.90;;;;;;2107488;28;20052;-70
2023/01/25 04:01:45;;;;;;;28.95;26.05;;;3.50;99.90;;;;;;2106591;27;20740;-71
2023/01/25 04:02:46;;;;;;;27.65;24.98;;;3.50;99.90;;;;;;2108603;28;20436;-71
2023/01/25 04:03:47;;;;;;;28.13;25.35;;;3.50;99.90;;;;;;2108355;28;20583;-71
2023/01/25 04:04:47;;;;;;;29.05;26.20;;;3.50;99.90;;;;;;2106836;28;20024;-71
2023/01/25 04:05:48;;;;;;;27.88;25.05;;;3.50;99.90;;;;;;2109531;28;20015;-71
2023/01/25 04:06:48;;;;;;;28.27;25.50;;;3.50;99.90;;;;;;2109752;28;20042;-71
2023/01/25 04:07:49;;;;;;;31.10;27.88;;;3.50;99.90;;;;;;2107250;28;20032;-71
2023/01/25 04:08:49;;;;;;;33.13;29.90;;;3.60;99.90;;;;;;2107378;28;20024;-71
2023/01/25 04:09:50;;;;;;;31.25;28.10;;;3.60;99.90;;;;;;2106731;28;20032;-71
2023/01/25 04:10:52;;;;;;;30.80;27.48;;;3.60;99.90;;;;;;2108662;28;20038;-71
2023/01/25 04:11:52;;;;;;;30.40;27.40;;;3.50;99.90;;;;;;2107621;28;20051;-72
2023/01/25 04:12:53;;;;;;;30.95;27.77;;;3.50;99.90;;;;;;2106495;28;20027;-71
2023/01/25 04:13:53;;;;;;;32.70;29.30;;;3.40;99.90;;;;;;2107479;28;20036;-71
2023/01/25 04:14:54;;;;;;;29.20;26.30;;;3.40;99.90;;;;;;2107465;28;20020;-71
2023/01/25 04:15:54;;;;;;;28.52;25.67;;;3.40;99.90;;;;;;2108725;28;20593;-71
2023/01/25 04:16:55;;;;;;;28.27;25.45;;;3.40;99.90;;;;;;2108952;28;20031;-71
2023/01/25 04:17:56;;;;;;;30.05;27.02;;;3.40;99.90;;;;;;2107696;28;20019;-71
2023/01/25 04:18:57;;;;;;;28.98;25.98;;;3.40;99.90;;;;;;2109748;28;20024;-71
2023/01/25 04:19:57;;;;;;;30.33;27.50;;;3.40;99.90;;;;;;2108462;28;20081;-71
2023/01/25 04:20:58;;;;;;;29.70;26.73;;;3.40;99.90;;;;;;2107631;28;20439;-71
2023/01/25 04:21:58;;;;;;;29.00;26.23;;;3.40;99.90;;;;;;2106642;28;20037;-71
2023/01/25 04:23:00;;;;;;;29.40;26.40;;;3.40;99.90;;;;;;2108308;28;20043;-71
2023/01/25 04:24:00;;;;;;;28.27;25.27;;;3.40;99.90;;;;;;2107872;28;20019;-71
2023/01/25 04:25:01;;;;;;;27.42;24.75;;;3.30;99.90;;;;;;2107342;28;20077;-71
2023/01/25 04:26:04;;;;;;;28.85;25.92;;;3.40;99.90;;;;;;2108698;28;20020;-71
2023/01/25 04:27:05;;;;;;;28.25;25.48;;;3.40;99.90;;;;;;2108181;28;20131;-71
2023/01/25 04:28:06;;;;;;;28.90;25.98;;;3.40;99.90;;;;;;2107710;28;20093;-71
2023/01/25 04:29:06;;;;;;;27.38;24.50;;;3.40;99.90;;;;;;2108182;28;20746;-71
2023/01/25 04:30:07;;;;;;;27.00;24.40;;;3.40;99.90;;;;;;2105656;28;20019;-71
2023/01/25 04:31:08;;;;;;;28.65;25.73;;;3.30;99.90;;;;;;2108374;28;20028;-71
2023/01/25 04:32:08;;;;;;;25.20;22.75;;;3.40;99.90;;;;;;2108993;28;20048;-71
2023/01/25 04:33:10;;;;;;;26.00;23.40;;;3.40;99.90;;;;;;2108286;28;20049;-71
2023/01/25 04:34:11;;;;;;;28.15;25.35;;;3.40;99.90;;;;;;2106507;28;20095;-71
2023/01/25 04:35:11;;;;;;;28.00;25.40;;;3.40;99.90;;;;;;2107388;28;20080;-71
2023/01/25 04:36:12;;;;;;;28.80;25.67;;;3.40;99.90;;;;;;2108592;28;20055;-71
2023/01/25 04:37:12;;;;;;;28.30;25.45;;;3.40;99.90;;;;;;2110288;28;20016;-71
2023/01/25 04:38:13;;;;;;;27.42;24.52;;;3.40;99.90;;;;;;2107576;28;20122;-71
2023/01/25 04:39:13;;;;;;;29.67;26.85;;;3.40;99.90;;;;;;2108439;28;20023;-71
2023/01/25 04:40:14;;;;;;;30.60;27.42;;;3.40;99.90;;;;;;2106885;28;20055;-71
2023/01/25 04:41:15;;;;;;;31.38;28.17;;;3.50;99.90;;;;;;2108146;28;20106;-71
2023/01/25 04:42:15;;;;;;;29.38;26.45;;;3.50;99.90;;;;;;2107352;27;20027;-71
2023/01/25 04:43:17;;;;;;;30.67;27.33;;;3.40;99.90;;;;;;2109308;28;20023;-71
2023/01/25 04:44:18;;;;;;;29.95;26.85;;;3.50;99.90;;;;;;2107568;28;20542;-71
2023/01/25 04:45:18;;;;;;;29.10;26.20;;;3.40;99.90;;;;;;2108546;28;20589;-71
2023/01/25 04:46:19;;;;;;;29.73;26.67;;;3.50;99.90;;;;;;2109879;28;20935;-71
2023/01/25 04:47:20;;;;;;;28.63;25.55;;;3.40;99.90;;;;;;2108384;28;20052;-71
2023/01/25 04:48:20;;;;;;;26.63;24.02;;;3.40;99.90;;;;;;2107751;28;20644;-71
2023/01/25 04:49:21;;;;;;;28.05;25.05;;;3.40;99.90;;;;;;2107918;28;20055;-71
2023/01/25 04:50:21;;;;;;;27.70;24.95;;;3.40;99.90;;;;;;2109131;28;20134;-71
2023/01/25 04:51:22;;;;;;;28.15;25.33;;;3.40;99.90;;;;;;2107134;28;20031;-71
2023/01/25 04:52:22;;;;;;;29.92;26.92;;;3.40;99.90;;;;;;2107667;28;20027;-71
2023/01/25 04:53:23;;;;;;;28.77;25.90;;;3.40;99.90;;;;;;2107099;28;20072;-71
2023/01/25 04:54:23;;;;;;;30.92;27.73;;;3.40;99.90;;;;;;2107694;28;20023;-71
2023/01/25 04:55:24;;;;;;;31.15;27.90;;;3.40;99.90;;;;;;2107495;28;20486;-71
2023/01/25 04:56:24;;;;;;;29.52;26.52;;;3.40;99.90;;;;;;2106717;28;20027;-71
2023/01/25 04:57:25;;;;;;;30.02;27.02;;;3.30;99.90;;;;;;2108622;28;20543;-71
2023/01/25 04:58:25;;;;;;;31.00;27.73;;;3.30;99.90;;;;;;2108249;28;20038;-71
2023/01/25 04:59:26;;;;;;;30.25;27.00;;;3.30;99.90;;;;;;2106459;28;20040;-71
2023/01/25 05:00:27;;;;;;;29.50;26.33;;;3.30;99.90;;;;;;2108734;28;20085;-71
2023/01/25 05:01:28;;;;;;;30.55;27.35;;;3.30;99.90;;;;;;2107799;28;20073;-71
2023/01/25 05:02:28;;;;;;;32.00;28.52;;;3.30;99.90;;;;;;2106760;28;20623;-71
2023/01/25 05:03:29;;;;;;;30.98;27.77;;;3.30;99.90;;;;;;2107329;28;20025;-71
2023/01/25 05:04:30;;;;;;;34.83;29.15;;;3.30;99.90;;;;;;2107942;28;20062;-71
2023/01/25 05:05:30;;;;;;;31.38;27.92;;;3.30;99.90;;;;;;2109195;28;21757;-71
2023/01/25 05:06:31;;;;;;;32.58;29.10;;;3.30;99.90;;;;;;2108186;28;20074;-71
2023/01/25 05:07:31;;;;;;;30.80;27.50;;;3.30;99.90;;;;;;2106966;28;20068;-71
2023/01/25 05:08:32;;;;;;;30.02;26.83;;;3.30;99.90;;;;;;2100836;28;20021;-71
2023/01/25 05:09:33;;;;;;;31.02;27.83;;;3.30;99.90;;;;;;2106692;28;20122;-71
2023/01/25 05:10:34;;;;;;;30.92;27.75;;;3.20;99.90;;;;;;2107774;28;20555;-71
2023/01/25 05:11:34;;;;;;;31.08;27.80;;;3.20;99.90;;;;;;2108502;28;20020;-71
2023/01/25 05:12:35;;;;;;;29.02;25.92;;;3.20;99.90;;;;;;2107729;28;20024;-70
2023/01/25 05:13:35;;;;;;;31.40;28.02;;;3.20;99.90;;;;;;2110030;28;20028;-71
2023/01/25 05:14:37;;;;;;;29.63;26.58;;;3.30;99.90;;;;;;2107750;28;20119;-71
2023/01/25 05:15:37;;;;;;;30.90;27.60;;;3.30;99.90;;;;;;2107380;28;20479;-71
2023/01/25 05:16:38;;;;;;;27.70;24.90;;;3.30;99.90;;;;;;2109202;28;20015;-71
2023/01/25 05:17:38;;;;;;;33.10;29.80;;;3.30;99.90;;;;;;2107193;28;20028;-71